createdAt,value
2022-11-29T00:00:24.201Z,8.80
2022-11-29T00:03:09.973Z,8.80
2022-11-29T00:05:58.768Z,8.70
2022-11-29T00:08:47.477Z,8.70
2022-11-29T00:11:56.770Z,8.60
2022-11-29T00:14:43.046Z,8.50
2022-11-29T00:17:31.374Z,8.40
2022-11-29T00:20:16.904Z,8.30
2022-11-29T00:23:02.366Z,8.30
2022-11-29T00:25:50.529Z,8.30
2022-11-29T00:28:36.858Z,8.30
2022-11-29T00:31:23.858Z,8.30
2022-11-29T00:34:14.459Z,8.20
2022-11-29T00:37:00.234Z,8.30
2022-11-29T00:39:45.413Z,8.30
2022-11-29T00:42:33.768Z,8.30
2022-11-29T00:45:19.059Z,8.30
2022-11-29T00:48:04.370Z,8.20
2022-11-29T00:50:49.941Z,8.20
2022-11-29T00:53:38.931Z,8.20
2022-11-29T00:56:24.734Z,8.20
2022-11-29T00:59:10.345Z,8.10
2022-11-29T01:01:56.011Z,8.10
2022-11-29T01:04:41.843Z,8.00
2022-11-29T01:07:27.285Z,8.00
2022-11-29T01:10:12.697Z,8.00
2022-11-29T01:12:58.333Z,7.90
2022-11-29T01:15:43.953Z,7.80
2022-11-29T01:18:30.638Z,7.80
2022-11-29T01:21:20.993Z,7.70
2022-11-29T01:24:06.810Z,7.70
2022-11-29T01:26:52.179Z,7.60
2022-11-29T01:29:38.398Z,7.60
2022-11-29T01:32:25.210Z,7.50
2022-11-29T01:35:11.054Z,7.50
2022-11-29T01:37:56.312Z,7.50
2022-11-29T01:40:41.828Z,7.40
2022-11-29T01:43:28.483Z,7.40
2022-11-29T01:46:13.984Z,7.40
2022-11-29T01:49:21.318Z,7.30
2022-11-29T01:52:14.494Z,7.40
2022-11-29T01:55:05.594Z,7.40
2022-11-29T01:57:51.762Z,7.40
2022-11-29T02:00:41.454Z,7.40
2022-11-29T02:03:27.045Z,7.40
2022-11-29T02:06:12.534Z,7.40
2022-11-29T02:09:00.970Z,7.40
2022-11-29T02:12:07.893Z,7.40
2022-11-29T02:15:11.495Z,7.50
2022-11-29T02:18:05.417Z,7.50
2022-11-29T02:21:01.229Z,7.50
2022-11-29T02:24:07.525Z,7.50
2022-11-29T02:26:55.505Z,7.60
2022-11-29T02:29:51.259Z,7.50
2022-11-29T02:32:58.075Z,7.50
2022-11-29T02:35:43.367Z,7.50
2022-11-29T02:38:47.187Z,7.50
2022-11-29T02:42:04.821Z,7.50
2022-11-29T02:45:33.745Z,7.50
2022-11-29T02:48:56.004Z,7.50
2022-11-29T02:52:01.863Z,7.60
2022-11-29T02:55:27.255Z,7.60
2022-11-29T02:58:35.393Z,7.60
2022-11-29T03:02:03.533Z,7.60
2022-11-29T03:05:03.051Z,7.60
2022-11-29T03:08:18.213Z,7.50
2022-11-29T03:11:19.441Z,7.50
2022-11-29T03:14:36.148Z,7.50
2022-11-29T03:17:51.906Z,7.50
2022-11-29T03:20:46.258Z,7.60
2022-11-29T03:23:37.973Z,7.70
2022-11-29T03:26:42.313Z,7.70
2022-11-29T03:29:39.312Z,7.70
2022-11-29T03:32:29.989Z,7.80
2022-11-29T03:35:30.189Z,7.80
2022-11-29T03:38:39.746Z,7.80
2022-11-29T03:41:43.812Z,7.80
2022-11-29T03:45:05.418Z,7.80
2022-11-29T03:48:11.950Z,7.90
2022-11-29T03:51:04.159Z,7.90
2022-11-29T03:54:04.171Z,7.80
2022-11-29T03:56:49.962Z,7.90
2022-11-29T03:59:59.405Z,7.90
2022-11-29T04:03:13.100Z,8.00
2022-11-29T04:06:10.387Z,8.00
2022-11-29T04:09:29.943Z,8.10
2022-11-29T04:12:42.821Z,8.10
2022-11-29T04:16:20.489Z,8.10
2022-11-29T04:19:23.813Z,8.10
2022-11-29T04:22:39.961Z,8.20
2022-11-29T04:25:55.287Z,8.30
2022-11-29T04:29:17.583Z,8.30
2022-11-29T04:32:49.478Z,8.40
2022-11-29T04:36:02.987Z,8.50
2022-11-29T04:39:11.631Z,8.50
2022-11-29T04:42:20.058Z,8.60
2022-11-29T04:45:31.970Z,8.60
2022-11-29T04:48:49.665Z,8.60
2022-11-29T04:51:56.034Z,8.60
2022-11-29T04:55:20.801Z,8.60
2022-11-29T04:58:28.108Z,8.60
2022-11-29T05:01:32.261Z,8.70
2022-11-29T05:04:27.685Z,8.70
2022-11-29T05:07:55.340Z,8.80
2022-11-29T05:10:52.625Z,8.80
2022-11-29T05:14:22.670Z,8.90
2022-11-29T05:17:07.866Z,8.90
2022-11-29T05:20:06.232Z,8.90
2022-11-29T05:23:09.014Z,8.90
2022-11-29T05:26:14.781Z,9.00
2022-11-29T05:29:05.294Z,9.00
2022-11-29T05:32:01.767Z,9.00
2022-11-29T05:35:07.360Z,9.00
2022-11-29T05:37:54.761Z,9.10
2022-11-29T05:40:47.034Z,9.10
2022-11-29T05:43:41.382Z,9.10
2022-11-29T05:46:54.731Z,9.10
2022-11-29T05:49:52.150Z,9.10
2022-11-29T05:53:14.975Z,9.20
2022-11-29T05:56:27.434Z,9.10
2022-11-29T05:59:24.525Z,9.10
2022-11-29T06:02:37.496Z,9.20
2022-11-29T06:05:35.199Z,9.20
2022-11-29T06:08:31.873Z,9.20
2022-11-29T06:11:50.164Z,9.20
2022-11-29T06:14:54.713Z,9.20
2022-11-29T06:18:02.125Z,9.20
2022-11-29T06:21:25.078Z,9.20
2022-11-29T06:24:26.209Z,9.20
2022-11-29T06:27:42.413Z,9.20
2022-11-29T06:30:47.270Z,9.20
2022-11-29T06:34:04.990Z,9.20
2022-11-29T06:37:05.050Z,9.20
2022-11-29T06:39:50.693Z,9.30
2022-11-29T06:42:35.950Z,9.30
2022-11-29T06:45:22.111Z,9.30
2022-11-29T06:48:11.309Z,9.30
2022-11-29T06:51:08.266Z,9.30
2022-11-29T06:54:10.764Z,9.30
2022-11-29T06:57:10.745Z,9.30
2022-11-29T07:00:13.018Z,9.40
2022-11-29T07:03:17.167Z,9.40
2022-11-29T07:06:23.269Z,9.40
2022-11-29T07:09:15.199Z,9.40
2022-11-29T07:12:00.808Z,9.50
2022-11-29T07:14:46.953Z,9.50
2022-11-29T07:17:54.482Z,9.50
2022-11-29T07:20:58.005Z,9.50
2022-11-29T07:24:11.197Z,9.50
2022-11-29T07:27:29.197Z,9.60
2022-11-29T07:30:20.670Z,9.60
2022-11-29T07:33:26.455Z,9.60
2022-11-29T07:36:25.862Z,9.60
2022-11-29T07:39:32.747Z,9.60
2022-11-29T07:42:40.914Z,9.70
2022-11-29T07:45:28.866Z,9.70
2022-11-29T07:48:18.835Z,9.70
2022-11-29T07:51:04.623Z,9.70
2022-11-29T07:53:50.002Z,9.70
2022-11-29T07:56:35.623Z,9.80
2022-11-29T07:59:21.231Z,9.90
2022-11-29T08:02:11.639Z,9.90
2022-11-29T08:04:58.267Z,9.90
2022-11-29T08:07:46.244Z,9.90
2022-11-29T08:10:31.460Z,9.80
2022-11-29T08:13:20.421Z,9.90
2022-11-29T08:16:06.017Z,9.90
2022-11-29T08:18:53.897Z,9.90
2022-11-29T08:21:39.146Z,10.00
2022-11-29T08:24:26.279Z,10.10
2022-11-29T08:27:11.713Z,10.10
2022-11-29T08:30:04.742Z,10.10
2022-11-29T08:32:54.130Z,10.20
2022-11-29T08:35:39.960Z,10.20
2022-11-29T08:38:25.599Z,10.30
2022-11-29T08:41:14.065Z,10.30
2022-11-29T08:44:00.911Z,10.30
2022-11-29T08:47:05.125Z,10.40
2022-11-29T08:50:02.635Z,10.40
2022-11-29T08:53:07.521Z,10.40
2022-11-29T08:59:23.934Z,10.50
2022-11-29T09:02:09.419Z,10.60
2022-11-29T09:04:54.781Z,10.60
2022-11-29T09:07:43.505Z,10.70
2022-11-29T09:10:28.984Z,10.70
2022-11-29T09:13:15.005Z,10.70
2022-11-29T09:16:08.948Z,10.70
2022-11-29T09:18:56.018Z,10.60
2022-11-29T09:21:41.830Z,10.60
2022-11-29T09:24:27.616Z,10.70
2022-11-29T09:27:12.978Z,10.70
2022-11-29T09:29:58.722Z,10.80
2022-11-29T09:32:46.054Z,10.90
2022-11-29T09:35:34.022Z,10.90
2022-11-29T09:38:24.468Z,11.00
2022-11-29T09:41:34.608Z,11.00
2022-11-29T09:44:45.982Z,11.00
2022-11-29T09:47:47.478Z,11.00
2022-11-29T09:50:57.181Z,11.10
2022-11-29T09:54:02.923Z,11.10
2022-11-29T09:56:51.694Z,11.20
2022-11-29T09:59:44.368Z,11.30
2022-11-29T10:02:58.653Z,11.50
2022-11-29T10:05:49.951Z,11.50
2022-11-29T10:08:46.156Z,11.50
2022-11-29T10:11:57.485Z,11.40
2022-11-29T10:14:45.771Z,11.50
2022-11-29T10:17:44.705Z,11.50
2022-11-29T10:20:39.674Z,11.40
2022-11-29T10:23:39.094Z,11.40
2022-11-29T10:26:28.208Z,11.40
2022-11-29T10:29:16.819Z,11.40
2022-11-29T10:32:09.994Z,11.40
2022-11-29T10:35:02.355Z,11.40
2022-11-29T10:38:14.504Z,11.50
2022-11-29T10:41:10.437Z,11.50
2022-11-29T10:43:58.869Z,11.60
2022-11-29T10:46:44.304Z,11.60
2022-11-29T10:49:40.129Z,11.60
2022-11-29T10:52:28.030Z,11.80
2022-11-29T10:55:16.609Z,12.00
2022-11-29T10:58:12.437Z,12.20
2022-11-29T11:00:58.205Z,12.30
2022-11-29T11:03:53.009Z,12.30
2022-11-29T11:06:44.473Z,12.30
2022-11-29T11:09:49.777Z,12.40
2022-11-29T11:12:37.058Z,12.50
2022-11-29T11:15:34.045Z,12.50
2022-11-29T11:18:28.734Z,12.60
2022-11-29T11:21:17.123Z,12.70
2022-11-29T11:24:03.456Z,13.00
2022-11-29T11:26:48.797Z,13.20
2022-11-29T11:29:41.097Z,13.20
2022-11-29T11:32:26.606Z,13.10
2022-11-29T11:35:25.079Z,13.20
2022-11-29T11:38:17.838Z,13.20
2022-11-29T11:41:12.686Z,13.30
2022-11-29T11:44:07.140Z,13.20
2022-11-29T11:47:01.878Z,13.10
2022-11-29T11:49:53.590Z,12.90
2022-11-29T11:52:50.675Z,12.80
2022-11-29T11:55:53.132Z,12.90
2022-11-29T11:58:43.188Z,12.90
2022-11-29T12:01:38.530Z,12.80
2022-11-29T12:04:33.919Z,12.80
2022-11-29T12:08:05.709Z,12.70
2022-11-29T12:10:37.827Z,12.60
2022-11-29T12:13:30.686Z,12.50
2022-11-29T12:16:27.302Z,12.60
2022-11-29T12:19:21.610Z,12.70
2022-11-29T12:22:20.483Z,12.60
2022-11-29T12:25:15.945Z,12.60
2022-11-29T12:28:01.794Z,12.70
2022-11-29T12:30:59.761Z,12.70
2022-11-29T12:34:02.663Z,12.70
2022-11-29T12:37:02.591Z,13.00
2022-11-29T12:40:05.469Z,13.00
2022-11-29T12:42:50.669Z,12.80
2022-11-29T12:45:47.876Z,12.70
2022-11-29T12:48:36.021Z,12.40
2022-11-29T12:51:46.879Z,12.10
2022-11-29T12:54:52.821Z,12.30
2022-11-29T12:58:17.672Z,12.20
2022-11-29T13:01:20.970Z,12.10
2022-11-29T13:04:26.118Z,11.80
2022-11-29T13:07:39.061Z,11.80
2022-11-29T13:10:43.234Z,11.80
2022-11-29T13:13:42.785Z,11.80
2022-11-29T13:16:43.562Z,12.00
2022-11-29T13:20:01.073Z,11.90
2022-11-29T13:23:07.949Z,12.00
2022-11-29T13:25:56.134Z,11.90
2022-11-29T13:28:44.466Z,11.80
2022-11-29T13:31:30.872Z,11.80
2022-11-29T13:34:22.465Z,11.80
2022-11-29T13:37:23.118Z,11.80
2022-11-29T13:40:20.283Z,12.00
2022-11-29T13:43:17.723Z,12.20
2022-11-29T13:46:29.178Z,12.20
2022-11-29T13:49:23.071Z,12.10
2022-11-29T13:52:26.540Z,12.10
2022-11-29T13:55:12.067Z,12.20
2022-11-29T13:58:17.679Z,12.20
2022-11-29T14:01:12.765Z,12.30
2022-11-29T14:04:07.694Z,12.20
2022-11-29T14:07:20.717Z,12.10
2022-11-29T14:10:26.395Z,12.00
2022-11-29T14:13:15.659Z,11.90
2022-11-29T14:16:05.258Z,11.90
2022-11-29T14:19:08.614Z,11.90
2022-11-29T14:22:01.901Z,11.80
2022-11-29T14:24:59.790Z,11.70
2022-11-29T14:27:52.835Z,11.60
2022-11-29T14:30:44.426Z,11.60
2022-11-29T14:33:50.919Z,11.50
2022-11-29T14:36:45.597Z,11.50
2022-11-29T14:39:30.870Z,11.30
2022-11-29T14:42:20.393Z,11.20
2022-11-29T14:45:23.841Z,11.10
2022-11-29T14:48:27.423Z,11.10
2022-11-29T14:51:19.000Z,11.10
2022-11-29T14:54:18.118Z,11.10
2022-11-29T14:57:47.908Z,11.10
2022-11-29T15:00:52.104Z,11.10
2022-11-29T15:03:43.906Z,11.10
2022-11-29T15:06:32.161Z,11.10
2022-11-29T15:09:27.495Z,11.10
2022-11-29T15:12:24.214Z,11.10
2022-11-29T15:15:40.139Z,11.00
2022-11-29T15:18:47.493Z,11.00
2022-11-29T15:21:41.606Z,11.00
2022-11-29T15:24:28.903Z,11.00
2022-11-29T15:27:14.532Z,10.90
2022-11-29T15:30:18.781Z,10.90
2022-11-29T15:33:19.114Z,10.90
2022-11-29T15:36:13.227Z,10.90
2022-11-29T15:38:59.526Z,10.90
2022-11-29T15:41:45.310Z,10.90
2022-11-29T15:44:32.729Z,10.90
2022-11-29T15:47:23.684Z,10.90
2022-11-29T15:50:27.627Z,10.90
2022-11-29T15:53:20.203Z,10.90
2022-11-29T15:56:14.979Z,10.90
2022-11-29T15:59:09.673Z,10.90
2022-11-29T16:01:57.155Z,10.90
2022-11-29T16:04:46.774Z,10.80
2022-11-29T16:07:34.379Z,10.70
2022-11-29T16:10:36.043Z,10.60
2022-11-29T16:13:42.793Z,10.50
2022-11-29T16:16:32.218Z,10.50
2022-11-29T16:19:37.991Z,10.30
2022-11-29T16:22:24.297Z,10.30
2022-11-29T16:25:19.064Z,10.20
2022-11-29T16:28:12.729Z,10.10
2022-11-29T16:31:00.083Z,10.00
2022-11-29T16:33:49.736Z,9.90
2022-11-29T16:36:35.754Z,9.80
2022-11-29T16:39:23.752Z,9.70
2022-11-29T16:42:26.346Z,9.60
2022-11-29T16:45:38.379Z,9.50
2022-11-29T16:48:25.556Z,9.50
2022-11-29T16:51:11.332Z,9.50
2022-11-29T16:54:21.245Z,9.50
2022-11-29T16:57:09.534Z,9.50
2022-11-29T16:59:55.340Z,9.50
2022-11-29T17:02:40.849Z,9.50
2022-11-29T17:05:27.131Z,9.40
2022-11-29T17:08:12.822Z,9.40
2022-11-29T17:10:58.445Z,9.30
2022-11-29T17:13:43.934Z,9.30
2022-11-29T17:16:29.218Z,9.20
2022-11-29T17:19:15.006Z,9.10
2022-11-29T17:22:01.047Z,9.10
2022-11-29T17:24:48.341Z,9.00
2022-11-29T17:27:34.020Z,9.00
2022-11-29T17:30:22.346Z,9.00
2022-11-29T17:33:07.980Z,8.90
2022-11-29T17:35:53.370Z,8.80
2022-11-29T17:38:38.987Z,8.80
2022-11-29T17:41:26.055Z,8.80
2022-11-29T17:44:11.788Z,8.70
2022-11-29T17:46:57.334Z,8.70
2022-11-29T17:49:46.336Z,8.70
2022-11-29T17:52:31.981Z,8.60
2022-11-29T17:55:20.742Z,8.50
2022-11-29T17:58:06.621Z,8.50
2022-11-29T18:00:52.221Z,8.40
2022-11-29T18:03:40.164Z,8.40
2022-11-29T18:06:35.094Z,8.30
2022-11-29T18:09:20.658Z,8.30
2022-11-29T18:12:06.032Z,8.10
2022-11-29T18:14:51.648Z,8.10
2022-11-29T18:17:36.946Z,8.00
2022-11-29T18:20:22.149Z,7.90
2022-11-29T18:23:08.257Z,7.90
2022-11-29T18:25:58.819Z,7.80
2022-11-29T18:28:48.346Z,7.80
2022-11-29T18:31:35.943Z,7.80
2022-11-29T18:34:21.511Z,7.80
2022-11-29T18:37:11.094Z,7.80
2022-11-29T18:40:03.778Z,7.70
2022-11-29T18:42:51.004Z,7.70
2022-11-29T18:45:37.226Z,7.70
2022-11-29T18:48:22.886Z,7.70
2022-11-29T18:51:16.838Z,7.70
2022-11-29T18:54:03.466Z,7.70
2022-11-29T18:56:50.591Z,7.70
2022-11-29T18:59:35.982Z,7.70
2022-11-29T19:02:21.575Z,7.70
2022-11-29T19:05:07.520Z,7.70
2022-11-29T19:07:53.547Z,7.70
2022-11-29T19:10:39.128Z,7.80
2022-11-29T19:13:24.554Z,7.80
2022-11-29T19:16:15.626Z,7.90
2022-11-29T19:19:03.317Z,7.90
2022-11-29T19:21:49.140Z,7.90
2022-11-29T19:24:34.473Z,8.00
2022-11-29T19:27:21.337Z,8.00
2022-11-29T19:30:07.279Z,8.00
2022-11-29T19:32:52.971Z,8.00
2022-11-29T19:35:38.190Z,8.10
2022-11-29T19:38:23.782Z,8.10
2022-11-29T19:41:27.247Z,8.10
2022-11-29T19:44:12.769Z,8.10
2022-11-29T19:46:58.077Z,8.10
2022-11-29T19:49:46.712Z,8.10
2022-11-29T19:52:32.193Z,8.10
2022-11-29T19:55:17.723Z,8.10
2022-11-29T19:58:05.446Z,8.00
2022-11-29T20:00:55.262Z,8.00
2022-11-29T20:03:41.236Z,8.00
2022-11-29T20:06:28.629Z,8.00
2022-11-29T20:09:14.450Z,8.10
2022-11-29T20:11:59.407Z,8.10
2022-11-29T20:14:45.042Z,8.20
2022-11-29T20:17:30.897Z,8.30
2022-11-29T20:20:17.255Z,8.30
2022-11-29T20:23:02.808Z,8.40
2022-11-29T20:25:49.429Z,8.40
2022-11-29T20:28:35.400Z,8.40
2022-11-29T20:31:23.951Z,8.50
2022-11-29T20:34:15.779Z,8.60
2022-11-29T20:37:36.753Z,8.60
2022-11-29T20:40:36.010Z,8.60
2022-11-29T20:43:36.067Z,8.60
2022-11-29T20:46:25.882Z,8.60
2022-11-29T20:49:14.126Z,8.70
2022-11-29T20:52:05.365Z,8.70
2022-11-29T20:54:50.822Z,8.80
2022-11-29T20:57:38.407Z,8.80
2022-11-29T21:00:34.778Z,8.90
2022-11-29T21:03:26.493Z,8.90
2022-11-29T21:06:12.071Z,8.90
2022-11-29T21:08:57.741Z,8.90
2022-11-29T21:11:43.831Z,8.90
2022-11-29T21:14:30.411Z,8.90
2022-11-29T21:17:16.099Z,8.90
2022-11-29T21:20:02.099Z,8.90
2022-11-29T21:22:50.617Z,8.90
2022-11-29T21:25:41.886Z,9.00
2022-11-29T21:28:38.256Z,9.00
2022-11-29T21:31:24.288Z,9.00
2022-11-29T21:34:09.998Z,9.00
2022-11-29T21:37:02.370Z,9.00
2022-11-29T21:39:50.940Z,9.10
2022-11-29T21:42:36.535Z,9.10
2022-11-29T21:45:22.089Z,9.00
2022-11-29T21:48:27.532Z,9.10
2022-11-29T21:51:12.793Z,9.10
2022-11-29T21:53:58.504Z,9.10
2022-11-29T21:56:43.999Z,9.20
2022-11-29T21:59:32.624Z,9.20
2022-11-29T22:02:18.510Z,9.20
2022-11-29T22:05:04.333Z,9.30
2022-11-29T22:07:49.712Z,9.30
2022-11-29T22:10:39.150Z,9.40
2022-11-29T22:13:24.566Z,9.40
2022-11-29T22:16:10.800Z,9.50
2022-11-29T22:18:56.297Z,9.50
2022-11-29T22:21:44.648Z,9.60
2022-11-29T22:24:35.784Z,9.60
2022-11-29T22:27:21.910Z,9.60
2022-11-29T22:30:10.712Z,9.70
2022-11-29T22:32:57.138Z,9.70
2022-11-29T22:35:43.965Z,9.80
2022-11-29T22:38:29.796Z,9.80
2022-11-29T22:41:16.489Z,9.90
2022-11-29T22:44:05.564Z,9.80
2022-11-29T22:46:51.597Z,9.90
2022-11-29T22:49:37.250Z,9.90
2022-11-29T22:52:23.599Z,10.00
2022-11-29T22:55:09.389Z,9.90
2022-11-29T22:57:54.758Z,10.00
2022-11-29T23:00:43.928Z,10.00
2022-11-29T23:03:32.416Z,10.10
2022-11-29T23:06:24.646Z,10.00
2022-11-29T23:09:15.798Z,10.00
2022-11-29T23:12:01.090Z,10.00
2022-11-29T23:14:50.227Z,10.00
2022-11-29T23:17:38.816Z,10.00
2022-11-29T23:20:24.303Z,9.90
2022-11-29T23:23:10.019Z,9.90
2022-11-29T23:25:57.917Z,9.80
2022-11-29T23:28:43.196Z,9.80
2022-11-29T23:31:28.946Z,9.70
2022-11-29T23:34:14.731Z,9.70
2022-11-29T23:36:59.983Z,9.80
2022-11-29T23:39:46.713Z,9.90
2022-11-29T23:42:32.490Z,9.90
2022-11-29T23:45:17.772Z,9.90
2022-11-29T23:48:03.043Z,9.90
2022-11-29T23:50:48.964Z,10.00
2022-11-29T23:53:39.254Z,10.00
2022-11-29T23:56:27.367Z,10.00
2022-11-29T23:59:12.987Z,10.10
